This is the latest recevied weather packets stored in our database for station/object JA7ZQY-10. If no packets are shown the sender has not sent any weather packets the latest 10 day(s).
| Time | Temp. | Humidity | Pressure | Rain* | Wind** | Luminosity | Snow |
|---|---|---|---|---|---|---|---|
| 1778145291 | 20.56° C | 49% | 1010.6 hPa | 0 mm | - | - | - |
| 1778144690 | 21.11° C | 47% | 1010.5 hPa | 0 mm | - | - | - |
| 1778144091 | 21.11° C | 45% | 1010.5 hPa | 0 mm | - | - | - |
| 1778143490 | 21.67° C | 44% | 1010.4 hPa | 0 mm | - | - | - |
| 1778142892 | 21.67° C | 44% | 1010.5 hPa | 0 mm | - | - | - |
| 1778142291 | 21.67° C | 43% | 1010.3 hPa | 0 mm | - | - | - |
| 1778141691 | 22.22° C | 42% | 1010.5 hPa | 0 mm | - | - | - |
| 1778141090 | 22.22° C | 41% | 1010.6 hPa | 0 mm | - | - | - |
| 1778140492 | 22.78° C | 38% | 1010.4 hPa | 0 mm | - | - | - |
| 1778139891 | 22.78° C | 38% | 1010.5 hPa | 0 mm | - | - | - |
| 1778139290 | 22.78° C | 35% | 1010.4 hPa | 0 mm | - | - | - |
| 1778138690 | 23.33° C | 34% | 1010.3 hPa | 0 mm | - | - | - |
| 1778138091 | 23.33° C | 32% | 1010.2 hPa | 0 mm | - | - | - |
| 1778137491 | 23.33° C | 32% | 1010.3 hPa | 0 mm | - | - | - |
| 1778136890 | 23.33° C | 32% | 1010.4 hPa | 0 mm | - | - | - |
| 1778136290 | 23.89° C | 32% | 1010.1 hPa | 0 mm | - | - | - |
| 1778135691 | 23.89° C | 32% | 1010.4 hPa | 0 mm | - | - | - |
| 1778135090 | 24.44° C | 32% | 1010.3 hPa | 0 mm | - | - | - |
| 1778134491 | 23.89° C | 32% | 1010.7 hPa | 0 mm | - | - | - |
| 1778133891 | 24.44° C | 34% | 1010.4 hPa | 0 mm | - | - | - |
| 1778133290 | 23.33° C | 35% | 1010.6 hPa | 0 mm | - | - | - |
| 1778132690 | 23.89° C | 34% | 1010.6 hPa | 0 mm | - | - | - |
| 1778132090 | 23.89° C | 35% | 1010.8 hPa | 0 mm | - | - | - |
| 1778131490 | 23.89° C | 36% | 1010.8 hPa | 0 mm | - | - | - |
| 1778130889 | 23.89° C | 37% | 1010.9 hPa | 0 mm | - | - | - |
* Rain latest hour (hover to see other rain measurements)
** Current wind speed in m/s (hover to see current wind gust speed)